createdAt,value
2018-12-08T00:02:15.294Z,2.27
2018-12-08T00:04:42.804Z,2.20
2018-12-08T00:07:10.395Z,2.30
2018-12-08T00:09:37.927Z,2.13
2018-12-08T00:12:05.488Z,2.47
2018-12-08T00:14:33.040Z,2.50
2018-12-08T00:17:00.698Z,2.60
2018-12-08T00:19:28.249Z,2.00
2018-12-08T00:21:55.756Z,1.80
2018-12-08T00:24:23.314Z,2.60
2018-12-08T00:26:50.861Z,3.03
2018-12-08T00:29:21.109Z,3.37
2018-12-08T00:31:48.898Z,2.23
2018-12-08T00:34:16.562Z,2.33
2018-12-08T00:36:44.180Z,2.50
2018-12-08T00:39:11.722Z,2.47
2018-12-08T00:41:39.266Z,2.67
2018-12-08T00:44:06.802Z,2.23
2018-12-08T00:46:34.354Z,3.07
2018-12-08T00:49:01.928Z,2.17
2018-12-08T00:51:29.446Z,2.80
2018-12-08T00:53:58.970Z,2.00
2018-12-08T00:56:26.513Z,2.00
2018-12-08T00:58:54.076Z,2.40
2018-12-08T01:01:21.590Z,1.90
2018-12-08T01:03:49.136Z,3.17
2018-12-08T01:06:16.646Z,1.60
2018-12-08T01:08:44.212Z,1.60
2018-12-08T01:11:11.778Z,2.20
2018-12-08T01:13:39.318Z,2.03
2018-12-08T01:16:07.033Z,2.00
2018-12-08T01:18:34.585Z,1.77
2018-12-08T01:21:02.138Z,1.90
2018-12-08T01:23:29.703Z,2.73
2018-12-08T01:25:57.243Z,2.63
2018-12-08T01:28:24.756Z,1.67
2018-12-08T01:30:52.343Z,1.70
2018-12-08T01:33:20.223Z,1.93
2018-12-08T01:35:47.797Z,1.93
2018-12-08T01:38:15.456Z,2.03
2018-12-08T01:40:43.138Z,1.77
2018-12-08T01:43:10.677Z,1.87
2018-12-08T01:45:38.209Z,1.93
2018-12-08T01:48:05.758Z,1.50
2018-12-08T01:50:33.340Z,1.60
2018-12-08T01:53:00.883Z,1.90
2018-12-08T01:55:28.533Z,1.80
2018-12-08T01:57:56.089Z,1.70
2018-12-08T02:00:23.701Z,1.80
2018-12-08T02:02:51.264Z,2.17
2018-12-08T02:05:18.770Z,2.13
2018-12-08T02:07:46.374Z,1.87
2018-12-08T02:10:14.018Z,1.67
2018-12-08T02:12:41.566Z,2.13
2018-12-08T02:15:09.072Z,1.80
2018-12-08T02:17:36.760Z,1.93
2018-12-08T02:20:05.014Z,1.70
2018-12-08T02:22:32.568Z,2.30
2018-12-08T02:25:00.086Z,1.90
2018-12-08T02:27:27.634Z,1.60
2018-12-08T02:29:55.152Z,1.50
2018-12-08T02:32:22.813Z,1.57
2018-12-08T02:34:50.590Z,1.70
2018-12-08T02:37:18.162Z,1.70
2018-12-08T02:39:45.749Z,1.80
2018-12-08T02:42:13.330Z,2.10
2018-12-08T02:44:41.027Z,2.23
2018-12-08T02:47:08.640Z,1.63
2018-12-08T02:49:36.246Z,1.73
2018-12-08T02:52:04.012Z,1.90
2018-12-08T02:54:31.547Z,1.60
2018-12-08T02:56:59.234Z,1.63
2018-12-08T02:59:26.780Z,1.37
2018-12-08T03:01:54.644Z,1.40
2018-12-08T03:04:22.419Z,1.63
2018-12-08T03:06:50.043Z,1.40
2018-12-08T03:09:17.707Z,1.20
2018-12-08T03:11:45.438Z,1.53
2018-12-08T03:14:13.082Z,1.60
2018-12-08T03:16:40.649Z,1.57
2018-12-08T03:19:08.214Z,1.70
2018-12-08T03:21:35.766Z,1.10
2018-12-08T03:24:03.415Z,1.00
2018-12-08T03:26:30.984Z,1.30
2018-12-08T03:28:58.846Z,1.70
2018-12-08T03:31:26.453Z,1.70
2018-12-08T03:33:54.284Z,1.40
2018-12-08T03:36:21.831Z,1.60
2018-12-08T03:38:49.763Z,1.50
2018-12-08T03:41:17.773Z,1.37
2018-12-08T03:43:45.597Z,1.57
2018-12-08T03:46:14.799Z,1.40
2018-12-08T03:48:42.396Z,1.67
2018-12-08T03:51:09.955Z,1.50
2018-12-08T03:53:37.514Z,1.30
2018-12-08T03:56:05.044Z,1.57
2018-12-08T03:58:32.612Z,1.33
2018-12-08T04:01:00.122Z,1.30
2018-12-08T04:03:27.670Z,1.60
2018-12-08T04:05:55.421Z,1.43
2018-12-08T04:08:23.155Z,1.33
2018-12-08T04:10:50.938Z,1.50
2018-12-08T04:13:18.509Z,1.60
2018-12-08T04:15:46.040Z,1.73
2018-12-08T04:18:13.594Z,1.53
2018-12-08T04:20:41.150Z,1.47
2018-12-08T04:23:08.661Z,1.90
2018-12-08T04:25:36.207Z,1.87
2018-12-08T04:28:03.750Z,1.60
2018-12-08T04:30:31.289Z,1.50
2018-12-08T04:32:58.853Z,1.40
2018-12-08T04:35:26.417Z,1.60
2018-12-08T04:37:54.212Z,1.80
2018-12-08T04:40:21.920Z,1.97
2018-12-08T04:42:49.499Z,1.90
2018-12-08T04:45:17.107Z,1.60
2018-12-08T04:47:44.966Z,1.63
2018-12-08T04:50:13.208Z,1.70
2018-12-08T04:52:42.564Z,2.07
2018-12-08T04:55:11.338Z,1.63
2018-12-08T04:57:39.303Z,1.60
2018-12-08T05:00:07.581Z,1.80
2018-12-08T05:02:35.106Z,2.13
2018-12-08T05:05:03.377Z,1.50
2018-12-08T05:07:30.896Z,1.67
2018-12-08T05:09:58.453Z,1.77
2018-12-08T05:12:26.029Z,1.83
2018-12-08T05:14:53.609Z,1.37
2018-12-08T05:17:21.216Z,1.87
2018-12-08T05:19:48.732Z,1.20
2018-12-08T05:22:16.764Z,1.50
2018-12-08T05:24:44.686Z,1.50
2018-12-08T05:27:12.237Z,1.50
2018-12-08T05:29:40.045Z,1.50
2018-12-08T05:32:07.819Z,1.50
2018-12-08T05:34:35.467Z,1.70
2018-12-08T05:37:03.131Z,1.53
2018-12-08T05:39:30.906Z,1.40
2018-12-08T05:41:58.452Z,1.60
2018-12-08T05:44:26.317Z,1.50
2018-12-08T05:46:53.858Z,2.80
2018-12-08T05:49:21.414Z,1.30
2018-12-08T05:51:49.165Z,1.93
2018-12-08T05:54:16.677Z,1.30
2018-12-08T05:56:44.227Z,1.63
2018-12-08T05:59:11.794Z,1.50
2018-12-08T06:01:39.351Z,1.43
2018-12-08T06:04:06.870Z,2.20
2018-12-08T06:06:34.421Z,1.50
2018-12-08T06:09:02.004Z,1.80
2018-12-08T06:11:29.655Z,1.50
2018-12-08T06:13:57.212Z,1.20
2018-12-08T06:16:24.849Z,1.87
2018-12-08T06:18:52.484Z,1.10
2018-12-08T06:21:28.592Z,1.50
2018-12-08T06:23:56.220Z,1.23
2018-12-08T06:26:23.818Z,1.30
2018-12-08T06:28:51.429Z,1.43
2018-12-08T06:31:19.250Z,1.73
2018-12-08T06:33:46.808Z,1.83
2018-12-08T06:36:14.313Z,1.70
2018-12-08T06:38:41.874Z,1.40
2018-12-08T06:41:09.400Z,1.70
2018-12-08T06:43:37.629Z,1.60
2018-12-08T06:46:05.525Z,1.67
2018-12-08T06:48:33.118Z,1.50
2018-12-08T06:51:00.681Z,1.50
2018-12-08T06:53:28.201Z,1.40
2018-12-08T06:55:55.775Z,1.53
2018-12-08T06:58:24.127Z,1.50
2018-12-08T07:00:51.696Z,1.63
2018-12-08T07:03:19.278Z,1.47
2018-12-08T07:05:46.798Z,1.90
2018-12-08T07:08:14.341Z,1.80
2018-12-08T07:10:41.865Z,1.60
2018-12-08T07:13:09.436Z,1.63
2018-12-08T07:15:36.974Z,1.63
2018-12-08T07:18:04.521Z,1.67
2018-12-08T07:20:32.043Z,1.50
2018-12-08T07:22:59.590Z,2.03
2018-12-08T07:25:27.140Z,2.40
2018-12-08T07:27:55.058Z,1.83
2018-12-08T07:30:22.600Z,1.80
2018-12-08T07:32:50.150Z,1.60
2018-12-08T07:35:17.712Z,1.67
2018-12-08T07:37:45.265Z,1.60
2018-12-08T07:40:13.085Z,1.17
2018-12-08T07:42:40.625Z,1.70
2018-12-08T07:45:08.151Z,1.43
2018-12-08T07:47:36.083Z,1.47
2018-12-08T07:50:05.199Z,1.60
2018-12-08T07:52:32.860Z,1.90
2018-12-08T07:55:00.421Z,1.40
2018-12-08T07:57:28.008Z,1.50
2018-12-08T07:59:55.615Z,1.50
2018-12-08T08:02:23.207Z,1.87
2018-12-08T08:04:50.721Z,2.03
2018-12-08T08:07:19.555Z,1.50
2018-12-08T08:09:47.180Z,1.47
2018-12-08T08:12:15.565Z,1.67
2018-12-08T08:14:43.088Z,2.00
2018-12-08T08:17:11.141Z,1.63
2018-12-08T08:19:38.659Z,1.30
2018-12-08T08:22:06.246Z,1.83
2018-12-08T08:24:33.808Z,1.77
2018-12-08T08:27:01.418Z,1.67
2018-12-08T08:29:29.041Z,1.60
2018-12-08T08:31:56.581Z,1.60
2018-12-08T08:34:24.102Z,1.70
2018-12-08T08:36:51.829Z,1.83
2018-12-08T08:39:19.444Z,1.70
2018-12-08T08:41:46.997Z,2.57
2018-12-08T08:44:14.526Z,1.70
2018-12-08T08:46:42.342Z,1.73
2018-12-08T08:49:09.880Z,1.83
2018-12-08T08:51:38.213Z,1.70
2018-12-08T08:54:06.030Z,1.70
2018-12-08T08:56:33.657Z,1.70
2018-12-08T08:59:02.768Z,1.63
2018-12-08T09:01:30.351Z,1.70
2018-12-08T09:03:58.010Z,2.07
2018-12-08T09:06:25.986Z,1.57
2018-12-08T09:08:53.536Z,1.87
2018-12-08T09:11:21.342Z,1.60
2018-12-08T09:13:48.971Z,1.63
2018-12-08T09:16:16.479Z,1.73
2018-12-08T09:18:44.280Z,1.53
2018-12-08T09:21:11.844Z,1.80
2018-12-08T09:23:39.445Z,1.70
2018-12-08T09:26:07.162Z,2.03
2018-12-08T09:28:34.730Z,1.57
2018-12-08T09:31:02.341Z,1.37
2018-12-08T09:33:29.923Z,1.70
2018-12-08T09:35:58.149Z,1.73
2018-12-08T09:38:25.917Z,1.70
2018-12-08T09:40:53.530Z,1.33
2018-12-08T09:43:21.227Z,2.07
2018-12-08T09:45:48.791Z,1.60
2018-12-08T09:48:16.354Z,2.23
2018-12-08T09:50:44.017Z,1.67
2018-12-08T09:53:13.901Z,2.20
2018-12-08T09:55:42.486Z,1.63
2018-12-08T09:58:10.127Z,1.57
2018-12-08T10:00:37.867Z,1.77
2018-12-08T10:03:05.403Z,1.63
2018-12-08T10:05:33.353Z,1.87
2018-12-08T10:08:00.936Z,1.50
2018-12-08T10:10:29.776Z,2.00
2018-12-08T10:12:57.329Z,1.63
2018-12-08T10:15:24.891Z,1.73
2018-12-08T10:17:52.750Z,1.60
2018-12-08T10:20:20.470Z,1.80
2018-12-08T10:22:48.132Z,1.57
2018-12-08T10:25:15.698Z,1.70
2018-12-08T10:27:43.462Z,1.63
2018-12-08T10:30:11.115Z,1.40
2018-12-08T10:32:38.726Z,1.50
2018-12-08T10:35:10.336Z,1.30
2018-12-08T10:37:39.188Z,1.67
2018-12-08T10:40:08.471Z,1.67
2018-12-08T10:42:36.097Z,1.57
2018-12-08T10:45:04.679Z,1.70
2018-12-08T10:47:32.244Z,2.10
2018-12-08T10:49:59.807Z,1.70
2018-12-08T10:52:27.337Z,1.63
2018-12-08T10:54:54.915Z,2.23
2018-12-08T10:57:22.515Z,2.10
2018-12-08T10:59:52.030Z,2.13
2018-12-08T11:02:25.510Z,1.83
2018-12-08T11:04:53.197Z,1.80
2018-12-08T11:07:20.739Z,1.50
2018-12-08T11:09:48.402Z,1.80
2018-12-08T11:12:16.112Z,1.90
2018-12-08T11:14:43.930Z,1.97
2018-12-08T11:17:11.662Z,1.80
2018-12-08T11:19:39.223Z,2.10
2018-12-08T11:22:06.807Z,1.73
2018-12-08T11:24:34.711Z,2.00
2018-12-08T11:27:02.261Z,1.70
2018-12-08T11:29:31.507Z,2.47
2018-12-08T11:31:59.111Z,2.00
2018-12-08T11:34:26.787Z,1.83
2018-12-08T11:36:54.451Z,2.07
2018-12-08T11:39:22.109Z,1.47
2018-12-08T11:41:50.269Z,2.30
2018-12-08T11:44:18.093Z,2.10
2018-12-08T11:46:46.181Z,1.87
2018-12-08T11:49:13.898Z,1.73
2018-12-08T11:51:41.445Z,1.50
2018-12-08T11:54:09.292Z,1.30
2018-12-08T11:56:37.337Z,1.50
2018-12-08T11:59:04.890Z,1.90
2018-12-08T12:01:32.487Z,1.83
2018-12-08T12:04:00.004Z,1.40
2018-12-08T12:06:27.876Z,1.93
2018-12-08T12:08:55.497Z,1.80
2018-12-08T12:11:23.100Z,2.33
2018-12-08T12:13:50.667Z,1.60
2018-12-08T12:16:18.275Z,2.07
2018-12-08T12:18:46.100Z,1.80
2018-12-08T12:21:13.845Z,1.80
2018-12-08T12:23:41.412Z,1.67
2018-12-08T12:26:09.028Z,1.90
2018-12-08T12:28:37.110Z,2.33
2018-12-08T12:31:04.672Z,1.90
2018-12-08T12:33:32.454Z,1.73
2018-12-08T12:36:00.069Z,1.77
2018-12-08T12:38:27.591Z,2.10
2018-12-08T12:40:56.112Z,2.10
2018-12-08T12:43:23.652Z,2.17
2018-12-08T12:45:51.215Z,2.13
2018-12-08T12:48:18.752Z,2.00
2018-12-08T12:50:47.688Z,1.90
2018-12-08T12:53:15.392Z,2.93
2018-12-08T12:55:42.935Z,2.47
2018-12-08T12:58:10.570Z,2.43
2018-12-08T13:00:38.569Z,1.97
2018-12-08T13:03:06.108Z,1.90
2018-12-08T13:05:35.266Z,1.70
2018-12-08T13:08:02.904Z,1.73
2018-12-08T13:10:30.419Z,1.60
2018-12-08T13:12:58.063Z,1.50
2018-12-08T13:15:25.616Z,2.00
2018-12-08T13:17:53.181Z,1.50
2018-12-08T13:20:20.715Z,1.50
2018-12-08T13:22:48.517Z,2.27
2018-12-08T13:25:22.017Z,2.17
2018-12-08T13:27:49.553Z,1.60
2018-12-08T13:30:17.075Z,1.03
2018-12-08T13:32:44.624Z,1.40
2018-12-08T13:35:19.913Z,1.30
2018-12-08T13:37:47.467Z,1.90
2018-12-08T13:40:15.531Z,1.60
2018-12-08T13:42:44.592Z,1.27
2018-12-08T13:45:16.005Z,1.20
2018-12-08T13:47:44.975Z,1.60
2018-12-08T13:50:13.210Z,1.50
2018-12-08T13:52:40.750Z,1.63
2018-12-08T13:55:08.365Z,1.30
2018-12-08T13:57:36.023Z,1.60
2018-12-08T14:00:04.756Z,1.47
2018-12-08T14:02:32.529Z,1.20
2018-12-08T14:05:00.063Z,1.50
2018-12-08T14:07:27.623Z,1.23
2018-12-08T14:09:55.206Z,1.33
2018-12-08T14:12:22.845Z,1.90
2018-12-08T14:14:50.468Z,1.40
2018-12-08T14:17:18.042Z,1.70
2018-12-08T14:19:46.001Z,1.47
2018-12-08T14:22:13.635Z,1.60
2018-12-08T14:24:41.437Z,1.20
2018-12-08T14:27:08.953Z,1.63
2018-12-08T14:29:36.670Z,1.60
2018-12-08T14:32:04.277Z,1.50
2018-12-08T14:34:31.840Z,2.00
2018-12-08T14:36:59.395Z,1.63
2018-12-08T14:39:27.140Z,1.20
2018-12-08T14:41:54.701Z,2.20
2018-12-08T14:44:22.325Z,1.53
2018-12-08T14:46:49.891Z,1.30
2018-12-08T14:49:17.587Z,1.50
2018-12-08T14:51:45.114Z,1.37
2018-12-08T14:54:12.809Z,1.53
2018-12-08T14:56:40.387Z,1.70
2018-12-08T14:59:08.065Z,1.77
2018-12-08T15:01:35.622Z,1.60
2018-12-08T15:04:03.152Z,1.70
2018-12-08T15:06:31.343Z,1.70
2018-12-08T15:08:58.967Z,1.87
2018-12-08T15:11:26.503Z,1.40
2018-12-08T15:13:54.567Z,1.30
2018-12-08T15:16:22.709Z,1.73
2018-12-08T15:18:50.403Z,1.20
2018-12-08T15:21:19.071Z,1.40
2018-12-08T15:23:46.859Z,1.27
2018-12-08T15:26:14.417Z,1.60
2018-12-08T15:28:41.927Z,1.40
2018-12-08T15:31:09.508Z,1.40
2018-12-08T15:33:37.018Z,1.23
2018-12-08T15:36:04.640Z,1.60
2018-12-08T15:38:32.302Z,1.40
2018-12-08T15:40:59.905Z,1.40
2018-12-08T15:43:27.500Z,1.40
2018-12-08T15:45:56.014Z,1.60
2018-12-08T15:48:23.629Z,1.50
2018-12-08T15:50:51.881Z,1.40
2018-12-08T15:53:19.420Z,1.37
2018-12-08T15:55:47.026Z,1.80
2018-12-08T15:58:14.591Z,1.33
2018-12-08T16:00:42.266Z,1.60
2018-12-08T16:03:10.253Z,1.57
2018-12-08T16:05:37.777Z,1.70
2018-12-08T16:08:05.657Z,1.80
2018-12-08T16:10:33.325Z,1.60
2018-12-08T16:13:01.441Z,1.47
2018-12-08T16:15:28.971Z,1.50
2018-12-08T16:17:58.071Z,1.60
2018-12-08T16:20:25.794Z,1.67
2018-12-08T16:22:53.469Z,1.70
2018-12-08T16:25:20.982Z,1.40
2018-12-08T16:27:48.533Z,1.47
2018-12-08T16:30:16.094Z,1.83
2018-12-08T16:32:43.774Z,1.87
2018-12-08T16:35:11.428Z,1.50
2018-12-08T16:37:39.437Z,1.53
2018-12-08T16:40:07.207Z,1.40
2018-12-08T16:42:34.967Z,1.50
2018-12-08T16:45:02.887Z,1.87
2018-12-08T16:47:30.449Z,1.83
2018-12-08T16:49:58.020Z,1.40
2018-12-08T16:52:25.883Z,1.30
2018-12-08T16:54:53.480Z,1.70
2018-12-08T16:57:21.006Z,1.40
2018-12-08T16:59:48.859Z,1.43
2018-12-08T17:02:16.438Z,1.37
2018-12-08T17:04:43.977Z,1.30
2018-12-08T17:07:13.089Z,1.23
2018-12-08T17:09:40.630Z,1.63
2018-12-08T17:12:09.554Z,1.77
2018-12-08T17:14:37.181Z,1.60
2018-12-08T17:17:04.749Z,1.57
2018-12-08T17:19:32.396Z,1.60
2018-12-08T17:22:00.091Z,1.57
2018-12-08T17:24:27.627Z,1.73
2018-12-08T17:26:55.493Z,1.77
2018-12-08T17:29:23.361Z,1.50
2018-12-08T17:31:50.923Z,1.53
2018-12-08T17:34:18.592Z,1.57
2018-12-08T17:36:46.315Z,1.50
2018-12-08T17:39:14.006Z,1.50
2018-12-08T17:41:41.671Z,1.43
2018-12-08T17:44:09.258Z,2.03
2018-12-08T17:46:36.979Z,1.50
2018-12-08T17:49:04.578Z,1.37
2018-12-08T17:51:32.185Z,1.60
2018-12-08T17:54:02.042Z,1.60
2018-12-08T17:56:29.620Z,1.30
2018-12-08T17:58:57.178Z,1.50
2018-12-08T18:01:24.719Z,1.50
2018-12-08T18:03:52.243Z,1.60
2018-12-08T18:06:19.817Z,1.50
2018-12-08T18:08:47.666Z,2.40
2018-12-08T18:11:15.292Z,1.10
2018-12-08T18:13:42.842Z,1.60
2018-12-08T18:16:10.390Z,1.57
2018-12-08T18:18:38.172Z,1.43
2018-12-08T18:21:05.839Z,1.53
2018-12-08T18:23:34.781Z,1.43
2018-12-08T18:26:02.624Z,1.40
2018-12-08T18:28:30.165Z,1.63
2018-12-08T18:30:57.765Z,2.10
2018-12-08T18:33:25.304Z,1.60
2018-12-08T18:35:53.501Z,1.50
2018-12-08T18:38:21.256Z,1.73
2018-12-08T18:40:48.826Z,1.60
2018-12-08T18:43:16.434Z,1.57
2018-12-08T18:45:44.129Z,1.50
2018-12-08T18:48:12.616Z,2.30
2018-12-08T18:50:40.223Z,1.50
2018-12-08T18:53:09.228Z,1.70
2018-12-08T18:55:36.988Z,1.60
2018-12-08T18:58:04.816Z,1.80
2018-12-08T19:00:32.374Z,2.40
2018-12-08T19:02:59.965Z,2.40
2018-12-08T19:05:27.507Z,1.57
2018-12-08T19:07:57.800Z,2.20
2018-12-08T19:10:25.337Z,2.10
2018-12-08T19:12:52.901Z,2.40
2018-12-08T19:15:20.523Z,2.00
2018-12-08T19:17:48.103Z,1.70
2018-12-08T19:20:15.766Z,1.70
2018-12-08T19:22:43.442Z,1.70
2018-12-08T19:25:11.014Z,2.60
2018-12-08T19:27:38.542Z,1.40
2018-12-08T19:30:07.971Z,1.63
2018-12-08T19:32:35.506Z,2.07
2018-12-08T19:35:03.131Z,1.50
2018-12-08T19:37:30.701Z,1.33
2018-12-08T19:39:58.337Z,2.10
2018-12-08T19:42:25.880Z,1.70
2018-12-08T19:44:53.674Z,1.50
2018-12-08T19:47:21.747Z,1.37
2018-12-08T19:49:49.272Z,1.93
2018-12-08T19:52:17.534Z,1.10
2018-12-08T19:54:45.046Z,1.60
2018-12-08T19:57:12.616Z,1.40
2018-12-08T19:59:40.166Z,1.43
2018-12-08T20:02:08.031Z,1.50
2018-12-08T20:04:35.714Z,1.40
2018-12-08T20:07:03.306Z,1.80
2018-12-08T20:09:30.913Z,1.40
2018-12-08T20:11:58.500Z,1.10
2018-12-08T20:14:26.157Z,1.10
2018-12-08T20:16:53.670Z,1.43
2018-12-08T20:19:21.210Z,1.00
2018-12-08T20:21:48.823Z,1.20
2018-12-08T20:24:16.413Z,1.03
2018-12-08T20:26:43.962Z,1.17
2018-12-08T20:29:11.512Z,1.20
2018-12-08T20:31:39.077Z,1.10
2018-12-08T20:34:06.637Z,1.40
2018-12-08T20:36:34.157Z,1.23
2018-12-08T20:39:01.702Z,1.20
2018-12-08T20:41:29.259Z,1.07
2018-12-08T20:43:56.822Z,1.10
2018-12-08T20:46:25.932Z,1.20
2018-12-08T20:48:53.853Z,1.10
2018-12-08T20:51:22.489Z,1.07
2018-12-08T20:53:50.042Z,1.10
2018-12-08T20:56:17.565Z,1.10
2018-12-08T20:58:46.142Z,1.00
2018-12-08T21:01:14.163Z,1.00
2018-12-08T21:03:41.730Z,1.20
2018-12-08T21:06:09.261Z,1.47
2018-12-08T21:08:36.839Z,1.40
2018-12-08T21:11:04.500Z,1.40
2018-12-08T21:13:33.049Z,1.17
2018-12-08T21:16:02.235Z,1.17
2018-12-08T21:18:30.135Z,1.20
2018-12-08T21:20:57.735Z,1.10
2018-12-08T21:23:27.156Z,1.00
2018-12-08T21:25:54.838Z,1.30
2018-12-08T21:28:22.455Z,1.07
2018-12-08T21:30:50.012Z,1.00
2018-12-08T21:33:17.720Z,1.00
2018-12-08T21:35:45.271Z,0.80
2018-12-08T21:38:12.816Z,1.00
2018-12-08T21:40:40.444Z,1.03
2018-12-08T21:43:08.068Z,1.00
2018-12-08T21:45:35.887Z,1.10
2018-12-08T21:48:03.503Z,1.17
2018-12-08T21:50:31.033Z,0.80
2018-12-08T21:52:58.701Z,0.97
2018-12-08T21:55:28.376Z,1.00
2018-12-08T21:57:56.090Z,1.20
2018-12-08T22:00:23.645Z,1.00
2018-12-08T22:02:51.319Z,0.97
2018-12-08T22:05:19.124Z,1.10
2018-12-08T22:07:46.712Z,1.00
2018-12-08T22:10:14.433Z,1.00
2018-12-08T22:12:42.453Z,0.90
2018-12-08T22:15:16.658Z,1.00
2018-12-08T22:17:44.732Z,1.00
2018-12-08T22:20:12.702Z,1.10
2018-12-08T22:22:40.303Z,0.70
2018-12-08T22:25:07.859Z,0.80
2018-12-08T22:27:35.489Z,0.80
2018-12-08T22:30:03.592Z,0.90
2018-12-08T22:32:31.439Z,1.20
2018-12-08T22:34:59.045Z,1.00
2018-12-08T22:37:26.590Z,1.00
2018-12-08T22:39:54.488Z,0.93
2018-12-08T22:42:22.313Z,1.00
2018-12-08T22:44:49.977Z,1.00
2018-12-08T22:47:17.724Z,0.90
2018-12-08T22:49:45.319Z,0.83
2018-12-08T22:52:12.910Z,1.27
2018-12-08T22:54:40.751Z,1.10
2018-12-08T22:57:08.542Z,1.00
2018-12-08T22:59:36.087Z,1.03
2018-12-08T23:02:04.132Z,0.80
2018-12-08T23:04:32.109Z,0.90
2018-12-08T23:07:01.188Z,1.10
2018-12-08T23:09:28.861Z,0.90
2018-12-08T23:11:56.692Z,0.90
2018-12-08T23:14:24.341Z,0.93
2018-12-08T23:16:51.930Z,1.10
2018-12-08T23:19:19.645Z,0.93
2018-12-08T23:21:47.162Z,1.00
2018-12-08T23:24:15.055Z,1.27
2018-12-08T23:26:42.696Z,0.80
2018-12-08T23:29:10.315Z,1.17
2018-12-08T23:31:37.936Z,0.90
2018-12-08T23:34:05.589Z,1.00
2018-12-08T23:36:33.181Z,1.00
2018-12-08T23:39:00.862Z,0.90
2018-12-08T23:41:28.567Z,0.90
2018-12-08T23:43:56.136Z,0.90
2018-12-08T23:46:23.698Z,0.90
2018-12-08T23:48:51.290Z,0.80
2018-12-08T23:51:18.848Z,1.10
2018-12-08T23:53:46.407Z,1.00
2018-12-08T23:56:13.994Z,0.90
2018-12-08T23:58:41.686Z,1.03
